Time;durP1;ratioP1;P1;durP2;ratioP2;P2;SDS_P1;SDS_P2;PMS_P1;PMS_P2;Temp;Humidity;BMP_temperature;BMP_pressure;BME280_temperature;BME280_humidity;BME280_pressure;Samples;Min_cycle;Max_cycle;Signal;HPM_P1;HPM_P2
2023/10/10 00:01:39;;;;;;;13.18;9.15;;;;;;;16.32;79.59;101501.16;5048217;27;101682;-81
2023/10/10 00:04:05;;;;;;;13.05;9.20;;;;;;;16.29;79.56;101501.28;5043938;27;99516;-79
2023/10/10 00:06:38;;;;;;;14.73;9.50;;;;;;;16.33;79.55;101497.53;5051078;27;98992;-79
2023/10/10 00:09:06;;;;;;;12.10;8.82;;;;;;;16.25;80.14;101497.91;5049955;27;97019;-80
2023/10/10 00:11:35;;;;;;;11.48;8.25;;;;;;;16.14;80.28;101497.56;5048795;27;101276;-81
2023/10/10 00:14:05;;;;;;;12.07;8.07;;;;;;;15.76;81.66;101501.06;5051563;27;98107;-81
2023/10/10 00:16:37;;;;;;;11.50;8.18;;;;;;;16.10;80.57;101501.28;5044434;27;96711;-80
2023/10/10 00:19:17;;;;;;;10.80;8.02;;;;;;;16.20;80.12;101497.25;5048168;27;96828;-79
2023/10/10 00:21:48;;;;;;;12.95;8.23;;;;;;;16.08;80.89;101503.13;5043740;27;99366;-80
2023/10/10 00:24:20;;;;;;;13.73;7.78;;;;;;;16.00;81.06;101494.66;5051869;27;101852;-79
2023/10/10 00:26:47;;;;;;;10.98;7.82;;;;;;;16.04;80.78;101501.56;5051774;27;96784;-79
2023/10/10 00:29:14;;;;;;;16.73;8.50;;;;;;;16.32;79.99;101496.69;5053659;27;96995;-79
2023/10/10 00:31:45;;;;;;;11.82;7.80;;;;;;;16.17;80.52;101492.06;5046946;27;99008;-79
2023/10/10 00:34:13;;;;;;;13.05;8.18;;;;;;;16.23;80.07;101494.44;5054745;27;97819;-78
2023/10/10 00:36:41;;;;;;;11.48;8.50;;;;;;;16.41;79.24;101484.69;5056400;27;96839;-86
2023/10/10 00:39:22;;;;;;;10.75;7.88;;;;;;;16.19;80.05;101484.00;5052465;27;96791;-80
2023/10/10 00:41:53;;;;;;;12.43;7.93;;;;;;;16.27;79.41;101477.38;5052569;27;100475;-80
2023/10/10 00:44:21;;;;;;;12.23;8.30;;;;;;;16.21;79.99;101487.47;5046688;27;100696;-81
2023/10/10 00:46:51;;;;;;;8.70;7.25;;;;;;;16.03;80.42;101477.63;5052876;27;97111;-82
2023/10/10 00:49:23;;;;;;;13.25;7.75;;;;;;;16.13;80.25;101485.16;5049746;27;97343;-81
2023/10/10 00:51:50;;;;;;;10.65;7.53;;;;;;;16.13;80.77;101478.94;5050715;27;98900;-80
2023/10/10 00:54:30;;;;;;;9.65;7.68;;;;;;;16.06;80.80;101483.72;5055375;27;97743;-80
2023/10/10 00:56:59;;;;;;;10.80;7.28;;;;;;;16.14;80.77;101481.56;5057039;27;96740;-82
2023/10/10 00:59:32;;;;;;;11.13;7.95;;;;;;;16.12;80.84;101483.41;5052146;27;97004;-82
2023/10/10 01:02:00;;;;;;;9.50;7.28;;;;;;;16.04;81.48;101488.22;5055321;27;98920;-81
2023/10/10 01:04:35;;;;;;;10.15;6.95;;;;;;;16.10;81.26;101482.63;5054515;27;101536;-83
2023/10/10 01:07:03;;;;;;;11.05;7.38;;;;;;;16.29;80.71;101488.81;5059893;27;96869;-86
2023/10/10 01:09:40;;;;;;;10.38;7.20;;;;;;;16.34;80.35;101492.13;5065903;27;97342;-87
2023/10/10 01:12:07;;;;;;;8.77;6.28;;;;;;;16.46;79.86;101490.69;5068799;27;100430;-88
2023/10/10 01:14:34;;;;;;;11.10;6.13;;;;;;;16.56;78.76;101491.09;5067281;27;100467;-90
2023/10/10 01:17:01;;;;;;;11.07;6.43;;;;;;;16.27;80.06;101495.16;5062877;27;96696;-89
2023/10/10 01:19:29;;;;;;;8.30;6.25;;;;;;;16.33;80.29;101495.75;5067577;27;97483;-88
2023/10/10 01:21:59;;;;;;;10.55;6.70;;;;;;;16.27;80.39;101485.38;5053854;27;98741;-83
2023/10/10 01:24:26;;;;;;;7.85;6.22;;;;;;;16.43;79.50;101482.81;5057909;27;100996;-89
2023/10/10 01:26:52;;;;;;;7.80;5.55;;;;;;;16.08;80.57;101476.47;5064161;27;96873;-87
2023/10/10 01:29:25;;;;;;;8.98;5.07;;;;;;;16.34;79.84;101475.28;5061191;27;96906;-88
2023/10/10 01:31:53;;;;;;;6.75;5.35;;;;;;;16.28;80.23;101479.06;5060030;27;101525;-88
2023/10/10 01:37:13;;;;;;;8.23;5.78;;;;;;;16.41;79.94;101475.84;5065579;27;96749;-87
2023/10/10 01:39:51;;;;;;;7.15;5.22;;;;;;;16.17;80.57;101470.72;5064657;27;96639;-87
2023/10/10 01:42:24;;;;;;;6.80;4.97;;;;;;;16.13;80.78;101469.16;5066244;27;98426;-87
2023/10/10 01:44:52;;;;;;;8.77;5.32;;;;;;;16.13;81.46;101458.50;5071599;27;100435;-87
2023/10/10 01:47:26;;;;;;;9.65;5.40;;;;;;;16.47;79.59;101456.88;5067157;27;96630;-87
2023/10/10 01:49:53;;;;;;;8.93;5.72;;;;;;;16.19;80.46;101458.19;5074314;27;96495;-81
2023/10/10 01:52:23;;;;;;;6.43;5.18;;;;;;;16.17;81.48;101459.19;5059922;27;97751;-82
2023/10/10 01:54:53;;;;;;;6.15;5.22;;;;;;;16.14;81.65;101464.69;5059721;27;99479;-82
2023/10/10 01:57:22;;;;;;;8.00;5.70;;;;;;;16.25;81.18;101462.38;5054860;27;96869;-82
2023/10/10 01:59:49;;;;;;;7.38;5.28;;;;;;;16.39;80.97;101454.56;5051083;27;96885;-81
2023/10/10 02:02:16;;;;;;;6.93;5.30;;;;;;;16.56;80.13;101461.75;5055264;27;99298;-81
2023/10/10 02:04:44;;;;;;;8.23;5.60;;;;;;;16.05;82.49;101454.44;5056457;27;99709;-80
2023/10/10 02:07:21;;;;;;;6.95;5.18;;;;;;;16.34;81.10;101456.59;5060424;27;96734;-84
2023/10/10 02:10:00;;;;;;;8.23;5.47;;;;;;;16.26;81.13;101454.31;5053983;27;96991;-85
2023/10/10 02:12:26;;;;;;;8.38;5.43;;;;;;;16.37;81.00;101450.25;5068365;27;97927;-86
2023/10/10 02:14:54;;;;;;;7.50;5.43;;;;;;;16.50;80.02;101452.25;5060251;27;97779;-85
2023/10/10 02:17:23;;;;;;;7.68;5.50;;;;;;;16.38;80.83;101454.66;5059161;27;96710;-85
2023/10/10 02:19:59;;;;;;;7.28;5.43;;;;;;;16.41;81.03;101450.00;5059017;27;96564;-86
2023/10/10 02:22:35;;;;;;;7.72;4.97;;;;;;;16.25;81.12;101452.56;5065265;27;100186;-85
2023/10/10 02:27:55;;;;;;;9.43;5.55;;;;;;;16.55;80.63;101457.34;5063876;27;96865;-85
2023/10/10 02:30:34;;;;;;;9.18;5.70;;;;;;;16.53;80.51;101454.78;5066726;27;96572;-85
2023/10/10 02:33:03;;;;;;;12.85;6.03;;;;;;;16.31;81.23;101457.59;5057191;27;100879;-85
2023/10/10 02:35:34;;;;;;;7.45;5.72;;;;;;;16.56;81.07;101470.63;5057284;27;98752;-85
2023/10/10 02:38:04;;;;;;;8.95;5.50;;;;;;;16.35;81.38;101464.50;5054777;27;96645;-85
2023/10/10 02:40:32;;;;;;;9.80;5.93;;;;;;;16.22;82.22;101463.38;5054478;27;96916;-85
2023/10/10 02:43:18;;;;;;;10.40;6.32;;;;;;;16.42;81.51;101458.88;5053815;27;100070;-85
2023/10/10 02:45:45;;;;;;;10.48;6.18;;;;;;;16.50;81.55;101464.72;5058202;27;100395;-85
2023/10/10 02:48:20;;;;;;;11.10;5.90;;;;;;;16.49;81.47;101457.66;5052709;27;96888;-85
2023/10/10 02:50:51;;;;;;;11.07;6.57;;;;;;;16.64;80.89;101465.81;5056073;27;97550;-85
2023/10/10 02:53:19;;;;;;;9.98;6.25;;;;;;;16.53;81.42;101459.25;5058284;27;101453;-86
2023/10/10 02:55:51;;;;;;;7.88;5.97;;;;;;;16.61;80.97;101454.41;5068720;27;101038;-85
2023/10/10 02:58:21;;;;;;;11.93;6.10;;;;;;;16.72;80.76;101455.63;5074062;27;96203;-85
2023/10/10 03:00:51;;;;;;;8.80;6.32;;;;;;;16.56;81.49;101456.41;5062587;27;96515;-87
2023/10/10 03:03:19;;;;;;;10.95;6.22;;;;;;;16.51;82.01;101447.78;5075207;27;100092;-85
2023/10/10 03:05:51;;;;;;;10.93;6.20;;;;;;;16.77;80.82;101438.50;5065975;27;99938;-84
2023/10/10 03:08:34;;;;;;;10.10;6.60;;;;;;;16.69;81.48;101433.53;5063406;27;96914;-85
2023/10/10 03:11:14;;;;;;;11.25;6.55;;;;;;;16.92;80.17;101429.72;5057174;27;97746;-87
2023/10/10 03:13:48;;;;;;;11.07;6.47;;;;;;;16.48;81.29;101432.78;5071099;27;100634;-88
2023/10/10 03:19:13;;;;;;;14.25;7.35;;;;;;;16.35;82.28;101432.50;5061179;27;97765;-88
2023/10/10 03:21:50;;;;;;;11.15;6.40;;;;;;;16.72;80.92;101444.09;5073671;27;96055;-88
2023/10/10 03:24:36;;;;;;;9.85;6.30;;;;;;;16.82;81.18;101441.81;5062694;27;100049;-84
2023/10/10 03:27:48;;;;;;;10.90;6.82;;;;;;;16.83;81.30;101439.06;5067539;27;99494;-81
2023/10/10 03:30:16;;;;;;;10.57;6.82;;;;;;;16.60;82.40;101442.03;5050439;27;97558;-83
2023/10/10 03:32:59;;;;;;;12.88;6.85;;;;;;;16.73;81.59;101449.34;5049334;27;96955;-83
2023/10/10 03:35:51;;;;;;;15.55;7.20;;;;;;;16.89;80.72;101446.75;5056581;27;99293;-83
2023/10/10 03:38:44;;;;;;;13.00;7.32;;;;;;;16.74;81.96;101451.06;5046081;27;97509;-81
2023/10/10 03:41:26;;;;;;;13.93;7.63;;;;;;;16.82;81.87;101457.81;5051654;27;96926;-81
2023/10/10 05:25:31;;;;;;;13.88;8.10;;;;;;;17.70;83.48;101459.44;5052870;27;97243;-84
2023/10/10 05:27:59;;;;;;;14.05;8.35;;;;;;;18.10;82.38;101459.94;5056594;27;98753;-82
2023/10/10 05:30:27;;;;;;;13.75;8.40;;;;;;;17.90;82.56;101467.25;5049043;27;96783;-80
2023/10/10 05:33:01;;;;;;;13.35;8.27;;;;;;;17.95;82.83;101458.09;5043813;27;96874;-81
2023/10/10 05:35:29;;;;;;;15.65;7.90;;;;;;;18.19;81.86;101462.97;5045324;27;99274;-79
2023/10/10 05:37:57;;;;;;;11.35;7.85;;;;;;;17.75;84.22;101468.09;5050766;27;100256;-80
2023/10/10 05:40:24;;;;;;;12.55;7.63;;;;;;;18.16;83.07;101464.97;5051970;27;101172;-81
2023/10/10 05:42:51;;;;;;;12.32;6.88;;;;;;;18.03;84.01;101461.22;5047454;27;96918;-79
2023/10/10 05:45:18;;;;;;;7.90;6.28;;;;;;;17.93;84.94;101466.22;5042717;27;101940;-79
2023/10/10 05:47:45;;;;;;;13.55;6.95;;;;;;;17.86;85.85;101465.69;5050417;27;98883;-79
2023/10/10 05:50:11;;;;;;;12.13;7.43;;;;;;;17.90;85.38;101464.59;5049554;27;96692;-77
2023/10/10 05:52:38;;;;;;;11.27;5.93;;;;;;;17.84;86.42;101466.72;5044094;27;96847;-78
2023/10/10 05:55:09;;;;;;;10.30;6.15;;;;;;;17.92;86.26;101468.00;5046026;27;98377;-78
2023/10/10 05:57:36;;;;;;;12.57;6.10;;;;;;;18.02;86.08;101472.88;5049216;27;98023;-78
2023/10/10 06:00:10;;;;;;;14.88;6.35;;;;;;;18.16;85.54;101467.63;5053234;27;96865;-80
2023/10/10 06:02:37;;;;;;;10.70;5.93;;;;;;;17.95;86.82;101474.16;5049272;27;96936;-77
2023/10/10 06:05:05;;;;;;;8.10;5.47;;;;;;;18.10;86.56;101474.19;5049602;27;101856;-78
2023/10/10 06:07:32;;;;;;;21.42;6.30;;;;;;;18.02;86.41;101475.53;5048422;27;98732;-77
2023/10/10 06:09:58;;;;;;;8.75;5.50;;;;;;;18.07;86.66;101481.50;5047505;27;97444;-77
2023/10/10 06:12:26;;;;;;;10.32;5.70;;;;;;;17.81;87.84;101486.47;5051099;27;97926;-78
2023/10/10 06:14:54;;;;;;;9.63;5.90;;;;;;;18.18;86.61;101481.78;5049911;27;99483;-77
2023/10/10 06:17:21;;;;;;;9.52;5.07;;;;;;;18.21;86.33;101486.97;5052139;27;99078;-75
2023/10/10 06:19:50;;;;;;;12.48;6.03;;;;;;;18.32;86.07;101495.25;5048435;27;96903;-77
2023/10/10 06:22:17;;;;;;;8.43;5.40;;;;;;;18.41;85.29;101494.75;5051947;27;96924;-77
2023/10/10 06:24:43;;;;;;;19.45;6.10;;;;;;;18.22;86.62;101496.72;5043252;27;98932;-77
2023/10/10 06:27:13;;;;;;;8.30;4.88;;;;;;;18.23;85.91;101495.78;5053510;27;98799;-77
2023/10/10 06:29:41;;;;;;;16.42;5.50;;;;;;;18.25;86.40;101508.09;5049580;27;96699;-77
2023/10/10 06:32:10;;;;;;;13.32;5.20;;;;;;;18.40;85.71;101508.19;5045477;27;96827;-78
2023/10/10 06:34:38;;;;;;;9.85;4.78;;;;;;;18.46;85.19;101507.84;5047514;27;99371;-77
2023/10/10 06:37:07;;;;;;;13.32;5.43;;;;;;;18.44;85.21;101504.41;5039855;27;99792;-77
2023/10/10 06:39:34;;;;;;;12.63;6.78;;;;;;;18.54;84.81;101510.97;5049377;27;96804;-76
2023/10/10 06:42:03;;;;;;;9.63;5.60;;;;;;;18.49;84.79;101510.38;5047092;27;96903;-74
2023/10/10 06:44:34;;;;;;;9.02;5.10;;;;;;;18.67;84.22;101522.72;5050119;27;98977;-71
2023/10/10 06:47:08;;;;;;;9.15;5.65;;;;;;;18.61;84.00;101526.63;5041441;27;100451;-73
2023/10/10 06:49:44;;;;;;;10.68;5.07;;;;;;;18.53;84.24;101520.81;5047154;27;97081;-74
2023/10/10 06:52:18;;;;;;;11.73;5.10;;;;;;;18.41;84.90;101520.63;5042386;27;96965;-78
2023/10/10 06:54:45;;;;;;;11.65;4.70;;;;;;;18.65;84.57;101517.47;5048419;27;99185;-77
2023/10/10 06:57:17;;;;;;;17.45;5.13;;;;;;;18.93;83.01;101518.56;5047690;27;97627;-80
2023/10/10 06:59:43;;;;;;;12.43;5.40;;;;;;;18.73;82.94;101521.50;5050269;27;96836;-79
2023/10/10 07:02:20;;;;;;;15.75;4.80;;;;;;;18.83;82.64;101522.72;5050591;27;96810;-79
2023/10/10 07:04:52;;;;;;;;;;;;;;;18.66;83.69;101526.34;5049801;27;99029;-79
2023/10/10 07:07:19;;;;;;;9.20;4.80;;;;;;;18.63;83.68;101521.19;5047910;27;99123;-79
2023/10/10 07:09:46;;;;;;;8.40;4.90;;;;;;;18.72;83.30;101528.69;5044282;27;97267;-79
2023/10/10 07:12:16;;;;;;;8.43;4.88;;;;;;;18.73;83.34;101527.72;5050796;27;97882;-79
2023/10/10 07:14:44;;;;;;;13.52;6.15;;;;;;;18.79;83.61;101535.41;5043019;27;101627;-80
2023/10/10 07:17:13;;;;;;;9.65;5.22;;;;;;;18.61;84.38;101536.47;5041637;27;98122;-78
2023/10/10 07:21:04;;;;;;;11.10;5.32;;;;;;;18.57;84.77;101542.94;5043573;27;96775;-80
2023/10/10 07:22:27;;;;;;;11.40;5.13;;;;;;;18.89;83.07;101538.44;5044905;27;97972;-78
2023/10/10 07:24:56;;;;;;;;;;;;;;;18.83;83.81;101542.34;5048662;27;100364;-80
2023/10/10 07:27:30;;;;;;;10.23;4.75;;;;;;;18.85;83.42;101543.09;5040537;27;97764;-79
2023/10/10 07:30:08;;;;;;;15.43;5.88;;;;;;;18.66;84.72;101540.59;5042563;27;97550;-79
2023/10/10 07:32:38;;;;;;;9.82;5.07;;;;;;;18.77;84.33;101544.50;5049081;27;96822;-78
2023/10/10 07:35:06;;;;;;;7.13;5.45;;;;;;;18.83;83.72;101538.78;5040925;27;99475;-78
2023/10/10 07:37:32;;;;;;;5.80;4.80;;;;;;;18.75;83.76;101541.03;5046516;27;99118;-79
2023/10/10 07:40:18;;;;;;;9.23;5.05;;;;;;;18.96;83.62;101542.50;5043768;27;97577;-79
2023/10/10 07:42:49;;;;;;;10.98;4.80;;;;;;;18.78;83.70;101540.84;5048443;27;96863;-78
2023/10/10 07:45:26;;;;;;;12.43;5.07;;;;;;;18.84;83.90;101548.56;5045313;27;99174;-79
2023/10/10 07:50:47;;;;;;;14.52;6.38;;;;;;;18.61;84.57;101545.38;5040802;27;96755;-78
2023/10/10 07:53:13;;;;;;;8.32;5.57;;;;;;;19.00;83.44;101552.94;5046668;27;96985;-77
2023/10/10 07:55:53;;;;;;;10.27;5.53;;;;;;;19.28;82.64;101551.31;5049748;27;98907;-79
2023/10/10 07:58:23;;;;;;;9.18;5.75;;;;;;;19.31;81.97;101560.03;5047595;27;99054;-80
2023/10/10 08:00:51;;;;;;;10.30;6.25;;;;;;;19.24;81.96;101545.28;5044449;27;97181;-79
2023/10/10 08:03:20;;;;;;;10.35;6.50;;;;;;;19.39;81.69;101546.19;5044885;27;97341;-80
2023/10/10 08:05:48;;;;;;;7.80;6.25;;;;;;;19.55;80.92;101552.41;5042615;27;97448;-79
2023/10/10 08:08:15;;;;;;;10.10;5.88;;;;;;;19.55;80.95;101554.22;5049050;27;97768;-79
2023/10/10 08:10:44;;;;;;;7.15;5.35;;;;;;;19.52;80.23;101555.25;5051049;27;96791;-79
2023/10/10 08:13:10;;;;;;;11.38;7.03;;;;;;;19.46;80.38;101556.50;5048807;27;97224;-79
2023/10/10 08:15:48;;;;;;;14.98;5.78;;;;;;;19.47;80.25;101555.53;5045169;27;101051;-79
2023/10/10 08:18:29;;;;;;;11.35;5.57;;;;;;;19.48;80.05;101559.09;5051927;27;99284;-79
2023/10/10 08:21:09;;;;;;;10.60;5.10;;;;;;;19.42;80.13;101557.59;5048437;27;99729;-79
2023/10/10 08:23:37;;;;;;;8.55;4.93;;;;;;;19.64;79.72;101553.66;5045909;27;97442;-79
2023/10/10 08:26:03;;;;;;;13.90;6.85;;;;;;;19.27;80.72;101555.81;5040616;27;99643;-79
2023/10/10 08:28:30;;;;;;;8.02;5.43;;;;;;;19.64;79.38;101551.84;5048336;27;100271;-79
2023/10/10 08:30:56;;;;;;;9.07;5.05;;;;;;;19.90;78.85;101559.16;5039335;27;97324;-79
2023/10/10 08:33:26;;;;;;;9.10;4.72;;;;;;;19.98;77.39;101556.00;5047759;27;97089;-79
2023/10/10 08:35:52;;;;;;;8.52;4.80;;;;;;;19.94;77.76;101556.28;5048422;27;100428;-79
2023/10/10 08:38:20;;;;;;;7.45;5.05;;;;;;;20.06;76.71;101559.06;5050239;27;99610;-78
2023/10/10 08:40:57;;;;;;;7.63;4.32;;;;;;;20.05;76.41;101560.03;5051584;27;96723;-81
2023/10/10 08:43:28;;;;;;;6.13;4.22;;;;;;;20.05;76.53;101565.41;5053129;27;96903;-81
2023/10/10 08:45:57;;;;;;;6.15;4.30;;;;;;;20.43;74.19;101568.38;5050963;27;100085;-81
2023/10/10 08:48:26;;;;;;;10.65;4.95;;;;;;;20.45;74.56;101562.91;5048692;27;100248;-81
2023/10/10 08:50:53;;;;;;;13.23;4.55;;;;;;;20.51;73.48;101558.03;5051823;27;97078;-82
2023/10/10 08:53:24;;;;;;;7.10;4.10;;;;;;;20.05;74.40;101565.41;5054906;27;97867;-80
2023/10/10 08:55:56;;;;;;;7.63;4.57;;;;;;;20.09;75.10;101563.38;5048102;27;101866;-81
2023/10/10 08:58:24;;;;;;;7.80;4.78;;;;;;;20.01;75.71;101552.28;5042888;27;99436;-79
2023/10/10 09:00:50;;;;;;;5.00;3.85;;;;;;;19.79;75.68;101563.44;5050196;27;97459;-82
2023/10/10 09:03:17;;;;;;;7.10;3.72;;;;;;;19.93;75.13;101566.16;5044071;27;97270;-83
2023/10/10 09:05:44;;;;;;;5.75;3.38;;;;;;;20.00;74.77;101561.28;5047980;27;102040;-82
2023/10/10 09:08:15;;;;;;;5.95;3.47;;;;;;;20.20;73.59;101559.09;5044577;27;96783;-81
2023/10/10 09:10:46;;;;;;;6.35;3.42;;;;;;;20.23;73.32;101558.00;5055191;27;96873;-83
2023/10/10 09:13:13;;;;;;;3.90;2.78;;;;;;;20.35;72.26;101559.13;5054456;27;96829;-82
2023/10/10 09:15:54;;;;;;;10.43;3.20;;;;;;;20.50;72.06;101560.78;5047345;27;98263;-83
2023/10/10 09:18:23;;;;;;;3.53;2.85;;;;;;;20.41;72.54;101561.41;5051699;27;98095;-82
2023/10/10 09:20:50;;;;;;;9.45;3.33;;;;;;;20.20;72.34;101552.84;5052519;27;97832;-82
2023/10/10 09:23:22;;;;;;;6.03;3.35;;;;;;;20.29;72.08;101563.84;5046574;27;96965;-82
2023/10/10 09:26:04;;;;;;;6.93;3.10;;;;;;;20.60;71.56;101553.88;5050354;27;98769;-82
2023/10/10 09:28:43;;;;;;;5.88;3.08;;;;;;;20.28;70.69;101562.13;5055629;27;99871;-80
2023/10/10 09:31:20;;;;;;;5.35;2.67;;;;;;;20.84;69.96;101559.47;5053543;27;96774;-82
2023/10/10 09:33:47;;;;;;;5.00;3.13;;;;;;;21.11;69.65;101559.50;5051554;27;96952;-82
2023/10/10 09:36:19;;;;;;;6.70;3.10;;;;;;;21.12;68.45;101562.06;5058120;27;98211;-82
2023/10/10 09:38:48;;;;;;;6.75;2.90;;;;;;;20.96;68.27;101562.22;5056916;27;97687;-85
2023/10/10 09:41:36;;;;;;;5.45;2.70;;;;;;;21.13;67.95;101558.44;5067217;27;96920;-86
2023/10/10 09:44:49;;;;;;;8.55;3.20;;;;;;;21.00;68.08;101561.03;5064512;27;96974;-87
2023/10/10 09:47:17;;;;;;;6.03;2.85;;;;;;;21.07;68.05;101567.72;5062151;27;97957;-87
2023/10/10 09:49:52;;;;;;;5.50;2.95;;;;;;;20.81;69.01;101570.41;5056591;27;100084;-85
2023/10/10 09:55:09;;;;;;;5.28;2.38;;;;;;;21.07;67.12;101562.38;5061670;27;96758;-86
2023/10/10 09:57:40;;;;;;;3.55;2.35;;;;;;;20.85;67.96;101574.63;5061440;27;99938;-84
2023/10/10 10:00:11;;;;;;;5.40;2.17;;;;;;;21.17;66.43;101570.72;5056825;27;99214;-83
2023/10/10 10:02:43;;;;;;;3.67;2.58;;;;;;;21.26;65.63;101561.19;5059900;27;96814;-85
2023/10/10 10:05:18;;;;;;;7.50;2.40;;;;;;;21.34;65.46;101569.56;5065251;27;98564;-86
2023/10/10 10:11:17;;;;;;;9.57;2.55;;;;;;;21.13;64.81;101577.25;4970878;28;98594;-80
2023/10/10 10:13:59;;;;;;;6.53;2.20;;;;;;;21.10;64.81;101582.81;4994347;27;99260;-79
2023/10/10 10:16:37;;;;;;;5.82;2.17;;;;;;;20.91;66.19;101583.16;5045826;27;96860;-80
2023/10/10 10:19:14;;;;;;;3.80;2.40;;;;;;;21.16;65.13;101581.56;5046590;27;99417;-79
2023/10/10 10:21:52;;;;;;;8.98;2.65;;;;;;;21.29;64.97;101577.09;5046904;27;101082;-80
2023/10/10 10:24:26;;;;;;;5.43;2.22;;;;;;;21.32;64.82;101587.66;5040861;27;96880;-79
2023/10/10 10:27:12;;;;;;;3.30;2.60;;;;;;;21.29;64.45;101580.66;5040469;27;96838;-80
2023/10/10 10:29:49;;;;;;;2.50;2.25;;;;;;;21.31;65.87;101581.41;5045580;27;100131;-79
2023/10/10 10:32:19;;;;;;;8.05;2.13;;;;;;;21.41;65.27;101581.63;5048953;27;98875;-79
2023/10/10 10:34:48;;;;;;;4.85;2.50;;;;;;;21.22;66.32;101584.72;5044096;27;96788;-79
2023/10/10 10:37:23;;;;;;;3.17;2.45;;;;;;;21.09;67.69;101581.06;5043405;27;97137;-81
2023/10/10 10:42:38;;;;;;;4.68;2.30;;;;;;;21.07;68.70;101575.78;5045074;27;99049;-78
2023/10/10 10:45:36;;;;;;;6.53;2.72;;;;;;;21.24;68.16;101582.78;5045413;27;96854;-78
2023/10/10 10:48:09;;;;;;;4.47;2.25;;;;;;;21.22;68.62;101583.84;5045401;27;96817;-77
2023/10/10 10:50:45;;;;;;;3.60;2.03;;;;;;;20.98;69.67;101573.75;5045617;27;101100;-77
2023/10/10 10:53:35;;;;;;;10.52;2.90;;;;;;;21.52;67.34;101576.41;5044964;27;98946;-78
2023/10/10 10:56:37;;;;;;;8.25;2.40;;;;;;;21.26;68.29;101571.94;5042532;27;97543;-76
2023/10/10 11:01:45;;;;;;;7.30;2.67;;;;;;;20.97;69.16;101563.94;5051423;27;99900;-77
2023/10/10 11:04:23;;;;;;;7.70;2.97;;;;;;;21.32;68.15;101568.84;5040303;27;99207;-77
2023/10/10 11:06:50;;;;;;;16.10;6.57;;;;;;;21.52;67.15;101568.34;5046389;27;98384;-77
2023/10/10 11:09:28;;;;;;;8.27;2.55;;;;;;;21.53;66.63;101558.47;5058121;27;96893;-85
2023/10/10 11:12:01;;;;;;;4.28;2.42;;;;;;;21.27;67.66;101562.88;5047541;27;101550;-85
2023/10/10 11:14:30;;;;;;;5.78;2.60;;;;;;;21.43;67.23;101568.97;5053960;27;100216;-85
2023/10/10 11:16:58;;;;;;;3.30;2.17;;;;;;;21.35;67.78;101566.78;5056380;27;97368;-86
2023/10/10 11:19:38;;;;;;;6.45;2.42;;;;;;;21.33;67.79;101567.88;5056294;27;97039;-89
2023/10/10 11:22:12;;;;;;;5.78;2.75;;;;;;;21.03;69.40;101562.69;5061020;27;101152;-87
2023/10/10 11:24:40;;;;;;;3.97;2.28;;;;;;;20.95;69.41;101563.19;5053715;27;101555;-84
2023/10/10 11:27:21;;;;;;;5.95;2.53;;;;;;;20.94;68.49;101564.13;5041858;27;97370;-87
2023/10/10 11:29:51;;;;;;;3.83;2.17;;;;;;;21.17;67.90;101564.47;5051590;27;98695;-88
2023/10/10 11:32:25;;;;;;;7.93;2.60;;;;;;;21.00;68.96;101563.72;5053926;27;100555;-86
2023/10/10 11:34:56;;;;;;;4.53;2.45;;;;;;;20.88;69.43;101572.59;5048739;27;100696;-84
2023/10/10 11:37:26;;;;;;;3.70;2.30;;;;;;;20.72;69.97;101562.97;5048576;27;96703;-85
2023/10/10 11:40:19;;;;;;;7.20;3.42;;;;;;;20.61;70.76;101561.00;5055571;27;96799;-85
2023/10/10 11:42:47;;;;;;;3.60;2.10;;;;;;;20.75;69.03;101563.63;5052838;27;99837;-89
2023/10/10 11:45:18;;;;;;;2.30;1.88;;;;;;;20.66;69.58;101561.56;5049290;27;101225;-81
2023/10/10 11:47:51;;;;;;;3.78;2.20;;;;;;;20.60;70.12;101557.44;5055431;27;97225;-85
2023/10/10 11:50:22;;;;;;;3.85;2.13;;;;;;;20.40;70.55;101551.63;5055064;27;96964;-87
2023/10/10 11:52:53;;;;;;;7.53;1.92;;;;;;;20.67;69.80;101548.03;5044935;27;101239;-86
2023/10/10 11:55:20;;;;;;;4.78;2.28;;;;;;;20.75;69.11;101547.50;5053555;27;101152;-85
2023/10/10 11:57:49;;;;;;;2.72;2.13;;;;;;;20.76;69.00;101543.84;5055328;27;97085;-86
2023/10/10 12:00:21;;;;;;;6.50;2.55;;;;;;;20.73;68.70;101545.91;5068926;27;96851;-87
2023/10/10 12:02:50;;;;;;;7.78;2.10;;;;;;;21.12;67.40;101548.63;5062947;27;99597;-87
2023/10/10 12:08:22;;;;;;;4.70;2.05;;;;;;;21.06;67.02;101544.53;5042439;27;97070;-78
2023/10/10 12:10:52;;;;;;;3.67;2.50;;;;;;;21.36;66.33;101543.47;5043102;27;96797;-77
2023/10/10 12:13:33;;;;;;;3.97;2.15;;;;;;;21.59;65.05;101536.53;5040365;27;99350;-78
2023/10/10 12:16:07;;;;;;;6.18;2.17;;;;;;;21.72;64.67;101532.88;5039406;27;99340;-78
2023/10/10 12:18:35;;;;;;;6.28;2.17;;;;;;;21.67;64.78;101529.63;5035005;27;98910;-77
2023/10/10 12:21:04;;;;;;;3.88;2.38;;;;;;;21.77;65.28;101528.03;5034426;27;99047;-77
2023/10/10 12:23:31;;;;;;;9.40;2.35;;;;;;;21.99;64.77;101529.25;5032773;27;101740;-78
2023/10/10 12:25:59;;;;;;;3.20;1.95;;;;;;;21.64;65.11;101540.63;5028779;27;103103;-77
2023/10/10 12:28:26;;;;;;;6.07;2.30;;;;;;;21.85;64.60;101528.38;5039048;27;97117;-77
2023/10/10 12:30:56;;;;;;;8.05;2.35;;;;;;;21.58;65.31;101524.03;5042864;27;97433;-78
2023/10/10 12:33:23;;;;;;;3.72;2.20;;;;;;;21.72;65.20;101526.63;5039314;27;98903;-77
2023/10/10 12:35:51;;;;;;;8.45;2.28;;;;;;;21.87;64.33;101514.78;5040713;27;98796;-79
2023/10/10 12:38:21;;;;;;;5.82;2.20;;;;;;;21.93;64.26;101516.16;5049155;27;97418;-80
2023/10/10 12:40:48;;;;;;;6.32;1.90;;;;;;;22.06;64.25;101509.84;5049534;27;96820;-80
2023/10/10 12:43:15;;;;;;;8.40;2.35;;;;;;;21.80;64.24;101508.97;5049189;27;98976;-81
2023/10/10 12:45:41;;;;;;;5.22;2.25;;;;;;;21.79;64.82;101522.56;5051819;27;101603;-80
2023/10/10 12:48:13;;;;;;;4.88;1.70;;;;;;;21.87;64.86;101515.66;5045658;27;98513;-78
2023/10/10 12:50:40;;;;;;;6.22;1.80;;;;;;;22.12;63.41;101495.13;5049473;27;96931;-80
2023/10/10 12:53:09;;;;;;;3.88;1.92;;;;;;;22.13;62.56;101499.50;5049914;27;98185;-79
2023/10/10 12:55:46;;;;;;;4.22;1.88;;;;;;;22.21;61.36;101498.00;5048397;27;101698;-79
2023/10/10 12:58:16;;;;;;;3.25;1.67;;;;;;;22.34;61.41;101497.09;5049803;27;96882;-80
2023/10/10 13:00:50;;;;;;;1.92;1.58;;;;;;;22.45;60.28;101489.94;5047482;27;97731;-80
2023/10/10 13:03:30;;;;;;;5.00;1.70;;;;;;;22.40;60.30;101493.94;5043836;27;99078;-79
2023/10/10 13:05:59;;;;;;;2.78;1.60;;;;;;;22.42;61.33;101498.25;5053402;27;99811;-81
2023/10/10 13:08:38;;;;;;;6.88;1.70;;;;;;;22.23;61.14;101495.19;5046805;27;98895;-78
2023/10/10 13:11:12;;;;;;;5.22;1.83;;;;;;;22.49;61.07;101491.47;5050865;27;101221;-87
2023/10/10 13:13:45;;;;;;;2.65;1.42;;;;;;;22.14;61.28;101488.63;5059735;27;99594;-86
2023/10/10 13:16:24;;;;;;;3.92;1.80;;;;;;;21.75;62.40;101497.69;5061285;27;99170;-88
2023/10/10 13:18:51;;;;;;;3.75;1.73;;;;;;;21.79;63.18;101485.72;5064585;27;96719;-87
2023/10/10 13:21:21;;;;;;;1.90;1.70;;;;;;;21.77;63.40;101489.50;5059068;27;97009;-87
2023/10/10 13:23:50;;;;;;;6.95;1.83;;;;;;;21.94;63.01;101491.00;5058905;27;99893;-85
2023/10/10 13:26:18;;;;;;;3.15;1.80;;;;;;;22.26;61.17;101500.34;5050369;27;99569;-84
2023/10/10 13:28:47;;;;;;;2.58;2.05;;;;;;;22.35;60.39;101488.91;5055801;27;96874;-86
2023/10/10 13:31:15;;;;;;;3.95;1.80;;;;;;;22.52;60.09;101493.91;5053361;27;96903;-83
2023/10/10 13:33:43;;;;;;;1.50;1.40;;;;;;;22.94;59.49;101486.34;5052819;27;99682;-85
2023/10/10 13:36:12;;;;;;;7.18;2.10;;;;;;;23.27;58.39;101488.28;5057208;27;99816;-83
2023/10/10 13:38:41;;;;;;;3.05;1.63;;;;;;;23.18;58.37;101497.06;5065251;27;96817;-84
2023/10/10 13:41:09;;;;;;;5.60;1.75;;;;;;;22.96;59.54;101490.66;5060246;27;97050;-85
2023/10/10 13:43:41;;;;;;;5.47;1.73;;;;;;;22.84;59.86;101485.31;5059807;27;100114;-84
2023/10/10 13:46:08;;;;;;;3.45;1.90;;;;;;;22.84;59.35;101483.47;5055612;27;100657;-85
2023/10/10 13:49:00;;;;;;;4.57;2.17;;;;;;;22.80;59.59;101489.19;5055377;27;96893;-84
2023/10/10 13:51:28;;;;;;;4.72;1.65;;;;;;;22.70;60.86;101488.16;5057794;27;96856;-85